createdAt,value
2018-08-25T00:01:14.069Z,97914.98
2018-08-25T00:03:43.218Z,97916.36
2018-08-25T00:06:12.406Z,97910.39
2018-08-25T00:08:41.507Z,97909.28
2018-08-25T00:11:11.218Z,97910.87
2018-08-25T00:13:40.369Z,97909.58
2018-08-25T00:16:09.546Z,97911.35
2018-08-25T00:18:38.665Z,97903.33
2018-08-25T00:21:08.813Z,97897.91
2018-08-25T00:23:37.952Z,97896.66
2018-08-25T00:26:07.155Z,97893.53
2018-08-25T00:28:36.401Z,97892.19
2018-08-25T00:31:10.890Z,97892.75
2018-08-25T00:33:40.085Z,97897.89
2018-08-25T00:36:09.217Z,97893.78
2018-08-25T00:38:38.359Z,97884.78
2018-08-25T00:41:07.503Z,97887.40
2018-08-25T00:43:36.691Z,97893.42
2018-08-25T00:46:05.811Z,97888.44
2018-08-25T00:48:35.041Z,97891.58
2018-08-25T00:51:04.919Z,97886.30
2018-08-25T00:53:35.457Z,97895.12
2018-08-25T00:56:04.626Z,97900.83
2018-08-25T00:58:33.780Z,97894.16
2018-08-25T01:01:03.565Z,97896.41
2018-08-25T01:03:32.753Z,97903.27
2018-08-25T01:06:02.114Z,97900.92
2018-08-25T01:08:31.280Z,97907.41
2018-08-25T01:11:00.390Z,97904.46
2018-08-25T01:13:29.970Z,97913.11
2018-08-25T01:15:59.157Z,97910.17
2018-08-25T01:18:29.398Z,97899.36
2018-08-25T01:20:58.607Z,97900.62
2018-08-25T01:23:27.872Z,97898.97
2018-08-25T01:25:57.093Z,97895.25
2018-08-25T01:28:26.239Z,97894.08
2018-08-25T01:30:55.461Z,97890.05
2018-08-25T01:33:24.573Z,97884.65
2018-08-25T01:35:53.709Z,97885.05
2018-08-25T01:38:22.871Z,97882.59
2018-08-25T01:40:51.998Z,97886.72
2018-08-25T01:43:21.113Z,97889.65
2018-08-25T01:45:50.971Z,97885.62
2018-08-25T01:48:20.079Z,97889.95
2018-08-25T01:50:49.951Z,97891.70
2018-08-25T01:53:19.088Z,97889.95
2018-08-25T01:55:48.769Z,97886.39
2018-08-25T01:58:17.487Z,97880.91
2018-08-25T02:00:46.610Z,97877.75
2018-08-25T02:03:15.815Z,97870.08
2018-08-25T02:05:44.935Z,97869.14
2018-08-25T02:08:14.093Z,97857.95
2018-08-25T02:10:43.256Z,97855.12
2018-08-25T02:13:12.430Z,97853.36
2018-08-25T02:15:41.615Z,97852.11
2018-08-25T02:18:10.779Z,97848.36
2018-08-25T02:20:39.958Z,97847.41
2018-08-25T02:23:09.133Z,97844.66
2018-08-25T02:25:38.287Z,97840.73
2018-08-25T02:28:07.682Z,97833.68
2018-08-25T02:30:36.862Z,97836.00
2018-08-25T02:33:06.977Z,97832.08
2018-08-25T02:35:36.110Z,97829.94
2018-08-25T02:38:05.254Z,97839.63
2018-08-25T02:40:34.371Z,97845.13
2018-08-25T02:43:03.531Z,97848.36
2018-08-25T02:45:32.777Z,97846.38
2018-08-25T02:48:01.892Z,97848.54
2018-08-25T02:50:30.996Z,97845.41
2018-08-25T02:53:00.141Z,97848.34
2018-08-25T02:55:29.730Z,97845.63
2018-08-25T02:57:58.969Z,97843.47
2018-08-25T03:00:28.114Z,97844.05
2018-08-25T03:02:57.233Z,97834.36
2018-08-25T03:05:26.340Z,97832.09
2018-08-25T03:07:57.378Z,97837.31
2018-08-25T03:10:26.553Z,97836.70
2018-08-25T03:12:55.678Z,97837.97
2018-08-25T03:15:24.826Z,97841.80
2018-08-25T03:17:53.989Z,97842.59
2018-08-25T03:20:23.109Z,97841.30
2018-08-25T03:22:52.281Z,97839.16
2018-08-25T03:25:21.406Z,97837.00
2018-08-25T03:27:50.521Z,97837.30
2018-08-25T03:30:19.646Z,97824.45
2018-08-25T03:32:48.793Z,97821.31
2018-08-25T03:35:17.944Z,97824.84
2018-08-25T03:37:47.090Z,97825.91
2018-08-25T03:40:16.210Z,97829.53
2018-08-25T03:42:45.394Z,97826.30
2018-08-25T03:45:14.499Z,97822.50
2018-08-25T03:47:43.615Z,97824.03
2018-08-25T03:50:12.794Z,97816.98
2018-08-25T03:52:41.910Z,97816.78
2018-08-25T03:55:11.278Z,97813.27
2018-08-25T03:57:40.465Z,97816.20
2018-08-25T04:00:10.360Z,97815.41
2018-08-25T04:02:39.569Z,97824.52
2018-08-25T04:05:08.794Z,97811.98
2018-08-25T04:07:38.111Z,97813.24
2018-08-25T04:10:07.540Z,97807.77
2018-08-25T04:12:36.774Z,97815.52
2018-08-25T04:15:06.984Z,97810.23
2018-08-25T04:17:36.637Z,97814.17
2018-08-25T04:20:06.563Z,97808.75
2018-08-25T04:22:35.746Z,97805.25
2018-08-25T04:25:05.363Z,97806.91
2018-08-25T04:27:34.520Z,97809.45
2018-08-25T04:30:04.768Z,97807.99
2018-08-25T04:32:34.222Z,97806.00
2018-08-25T04:35:03.355Z,97800.89
2018-08-25T04:37:32.476Z,97791.77
2018-08-25T04:40:01.680Z,97802.67
2018-08-25T04:42:30.882Z,97797.86
2018-08-25T04:45:00.117Z,97798.83
2018-08-25T04:47:29.245Z,97791.37
2018-08-25T04:49:58.342Z,97799.88
2018-08-25T04:52:27.709Z,97799.26
2018-08-25T04:54:56.862Z,97795.39
2018-08-25T04:57:26.049Z,97799.19
2018-08-25T04:59:55.162Z,97798.37
2018-08-25T05:02:24.258Z,97793.82
2018-08-25T05:04:53.411Z,97786.66
2018-08-25T05:07:23.241Z,97792.21
2018-08-25T05:09:52.362Z,97792.39
2018-08-25T05:12:21.482Z,97792.50
2018-08-25T05:14:50.609Z,97788.95
2018-08-25T05:17:19.750Z,97784.54
2018-08-25T05:19:48.854Z,97788.18
2018-08-25T05:22:18.393Z,97793.66
2018-08-25T05:24:47.521Z,97788.75
2018-08-25T05:27:16.635Z,97788.55
2018-08-25T05:29:45.753Z,97790.09
2018-08-25T05:32:14.858Z,97783.11
2018-08-25T05:34:44.068Z,97782.77
2018-08-25T05:37:13.446Z,97779.79
2018-08-25T05:39:42.585Z,97783.98
2018-08-25T05:42:11.699Z,97774.71
2018-08-25T05:44:40.845Z,97782.37
2018-08-25T05:47:09.986Z,97778.56
2018-08-25T05:49:39.085Z,97776.53
2018-08-25T05:52:08.260Z,97782.17
2018-08-25T05:54:37.510Z,97787.00
2018-08-25T05:57:06.810Z,97788.53
2018-08-25T05:59:35.994Z,97789.20
2018-08-25T06:02:05.269Z,97786.46
2018-08-25T06:04:34.534Z,97780.15
2018-08-25T06:07:03.509Z,97778.88
2018-08-25T06:09:32.628Z,97783.59
2018-08-25T06:12:01.718Z,97775.68
2018-08-25T06:14:30.818Z,97774.52
2018-08-25T06:16:59.929Z,97770.78
2018-08-25T06:19:29.548Z,97772.17
2018-08-25T06:21:58.638Z,97770.95
2018-08-25T06:24:27.745Z,97768.93
2018-08-25T06:26:56.862Z,97766.61
2018-08-25T06:29:26.605Z,97772.84
2018-08-25T06:31:55.759Z,97773.45
2018-08-25T06:34:24.905Z,97773.23
2018-08-25T06:36:54.795Z,97772.69
2018-08-25T06:39:23.909Z,97775.95
2018-08-25T06:41:53.042Z,97782.53
2018-08-25T06:44:22.369Z,97776.01
2018-08-25T06:46:51.502Z,97774.51
2018-08-25T06:49:20.594Z,97775.79
2018-08-25T06:51:49.714Z,97771.09
2018-08-25T06:54:18.906Z,97769.25
2018-08-25T06:56:48.117Z,97771.05
2018-08-25T06:59:17.258Z,97770.17
2018-08-25T07:01:47.250Z,97774.17
2018-08-25T07:04:15.977Z,97772.30
2018-08-25T07:06:45.086Z,97771.41
2018-08-25T07:09:15.035Z,97780.07
2018-08-25T07:11:44.140Z,97775.69
2018-08-25T07:14:13.810Z,97781.90
2018-08-25T07:16:42.941Z,97778.89
2018-08-25T07:19:12.466Z,97782.06
2018-08-25T07:21:41.751Z,97779.27
2018-08-25T07:24:10.866Z,97785.63
2018-08-25T07:26:39.966Z,97786.39
2018-08-25T07:29:09.151Z,97792.53
2018-08-25T07:31:38.253Z,97797.58
2018-08-25T07:34:07.374Z,97795.45
2018-08-25T07:36:36.502Z,97797.36
2018-08-25T07:39:10.146Z,97805.22
2018-08-25T07:41:39.273Z,97808.92
2018-08-25T07:44:08.394Z,97812.35
2018-08-25T07:46:38.357Z,97805.31
2018-08-25T07:49:07.467Z,97808.39
2018-08-25T07:51:36.613Z,97798.07
2018-08-25T07:54:05.974Z,97801.65
2018-08-25T07:56:35.069Z,97807.05
2018-08-25T07:59:04.327Z,97804.30
2018-08-25T08:01:33.389Z,97810.22
2018-08-25T08:04:03.093Z,97803.57
2018-08-25T08:06:32.674Z,97810.10
2018-08-25T08:09:01.830Z,97809.71
2018-08-25T08:11:30.957Z,97809.71
2018-08-25T08:14:00.070Z,97807.72
2018-08-25T08:16:29.182Z,97810.43
2018-08-25T08:18:58.307Z,97812.17
2018-08-25T08:21:27.908Z,97820.42
2018-08-25T08:23:57.014Z,97818.63
2018-08-25T08:26:26.197Z,97817.86
2018-08-25T08:28:55.337Z,97820.54
2018-08-25T08:31:24.682Z,97821.30
2018-08-25T08:33:53.783Z,97825.70
2018-08-25T08:36:22.922Z,97830.04
2018-08-25T08:38:52.058Z,97826.59
2018-08-25T08:41:21.153Z,97819.37
2018-08-25T08:43:50.415Z,97825.75
2018-08-25T08:46:24.816Z,97826.84
2018-08-25T08:48:53.914Z,97828.20
2018-08-25T08:51:23.064Z,97823.27
2018-08-25T08:53:53.173Z,97829.87
2018-08-25T08:56:22.265Z,97825.82
2018-08-25T08:58:54.377Z,97829.61
2018-08-25T09:01:23.485Z,97826.22
2018-08-25T09:03:52.590Z,97833.05
2018-08-25T09:06:21.757Z,97834.36
2018-08-25T09:08:51.367Z,97836.64
2018-08-25T09:11:20.183Z,97826.13
2018-08-25T09:13:49.849Z,97837.69
2018-08-25T09:16:19.481Z,97838.63
2018-08-25T09:18:48.690Z,97837.19
2018-08-25T09:21:17.909Z,97830.13
2018-08-25T09:23:47.011Z,97831.93
2018-08-25T09:26:16.121Z,97829.83
2018-08-25T09:28:45.293Z,97833.36
2018-08-25T09:31:14.458Z,97837.32
2018-08-25T09:33:43.598Z,97841.58
2018-08-25T09:36:12.810Z,97833.68
2018-08-25T09:38:41.861Z,97847.59
2018-08-25T09:41:10.967Z,97843.00
2018-08-25T09:43:40.082Z,97846.67
2018-08-25T09:46:09.193Z,97849.60
2018-08-25T09:48:38.843Z,97845.14
2018-08-25T09:51:07.964Z,97846.98
2018-08-25T09:53:37.134Z,97844.01
2018-08-25T09:56:06.251Z,97854.97
2018-08-25T09:58:35.329Z,97850.73
2018-08-25T10:01:05.873Z,97852.78
2018-08-25T10:03:35.796Z,97851.48
2018-08-25T10:06:04.918Z,97848.77
2018-08-25T10:08:34.114Z,97843.80
2018-08-25T10:11:03.779Z,97853.06
2018-08-25T10:13:33.226Z,97858.77
2018-08-25T10:16:02.986Z,97856.02
2018-08-25T10:18:32.170Z,97855.77
2018-08-25T10:21:00.933Z,97863.21
2018-08-25T10:23:30.281Z,97856.92
2018-08-25T10:25:59.391Z,97869.19
2018-08-25T10:28:28.526Z,97862.62
2018-08-25T10:30:57.710Z,97867.45
2018-08-25T10:33:26.827Z,97862.83
2018-08-25T10:35:56.092Z,97861.54
2018-08-25T10:38:25.354Z,97867.95
2018-08-25T10:40:54.501Z,97867.72
2018-08-25T10:43:23.702Z,97860.26
2018-08-25T10:45:52.850Z,97868.02
2018-08-25T10:48:21.950Z,97866.40
2018-08-25T10:50:51.078Z,97869.80
2018-08-25T10:53:20.193Z,97864.06
2018-08-25T10:55:49.301Z,97861.39
2018-08-25T10:58:18.593Z,97863.78
2018-08-25T11:00:48.095Z,97864.03
2018-08-25T11:03:16.998Z,97860.58
2018-08-25T11:05:46.110Z,97859.67
2018-08-25T11:08:15.225Z,97858.92
2018-08-25T11:10:44.337Z,97857.48
2018-08-25T11:13:15.030Z,97865.85
2018-08-25T11:15:43.698Z,97860.88
2018-08-25T11:18:12.802Z,97861.10
2018-08-25T11:20:41.949Z,97860.56
2018-08-25T11:23:11.075Z,97862.69
2018-08-25T11:25:40.243Z,97857.38
2018-08-25T11:28:15.744Z,97864.25
2018-08-25T11:30:44.867Z,97863.22
2018-08-25T11:33:14.027Z,97865.56
2018-08-25T11:35:43.193Z,97863.72
2018-08-25T11:38:12.437Z,97860.45
2018-08-25T11:40:41.400Z,97860.69
2018-08-25T11:43:10.525Z,97864.34
2018-08-25T11:45:39.641Z,97858.44
2018-08-25T11:48:08.766Z,97860.20
2018-08-25T11:50:37.922Z,97861.23
2018-08-25T11:53:07.034Z,97863.61
2018-08-25T11:55:36.137Z,97856.05
2018-08-25T11:58:05.305Z,97866.30
2018-08-25T12:00:34.413Z,97855.48
2018-08-25T12:03:03.834Z,97862.39
2018-08-25T12:05:32.694Z,97866.08
2018-08-25T12:08:01.815Z,97870.94
2018-08-25T12:10:30.961Z,97862.67
2018-08-25T12:13:00.476Z,97860.98
2018-08-25T12:15:29.558Z,97869.66
2018-08-25T12:17:58.940Z,97869.21
2018-08-25T12:20:28.263Z,97865.03
2018-08-25T12:22:57.610Z,97865.88
2018-08-25T12:25:26.809Z,97866.24
2018-08-25T12:27:56.018Z,97862.19
2018-08-25T12:30:25.462Z,97861.39
2018-08-25T12:32:54.915Z,97865.75
2018-08-25T12:35:24.229Z,97870.79
2018-08-25T12:37:53.343Z,97864.23
2018-08-25T12:40:22.438Z,97872.00
2018-08-25T12:42:51.573Z,97866.73
2018-08-25T12:45:20.687Z,97863.23
2018-08-25T12:47:49.817Z,97852.00
2018-08-25T12:50:18.938Z,97849.04
2018-08-25T12:52:48.043Z,97855.17
2018-08-25T12:55:17.213Z,97847.48
2018-08-25T12:57:46.299Z,97846.88
2018-08-25T13:00:15.459Z,97844.52
2018-08-25T13:02:44.630Z,97844.22
2018-08-25T13:05:13.739Z,97841.80
2018-08-25T13:07:42.934Z,97848.34
2018-08-25T13:10:12.162Z,97841.11
2018-08-25T13:12:41.272Z,97854.08
2018-08-25T13:15:10.421Z,97843.08
2018-08-25T13:17:39.537Z,97844.18
2018-08-25T13:20:09.349Z,97842.58
2018-08-25T13:22:38.459Z,97834.95
2018-08-25T13:25:10.502Z,97841.96
2018-08-25T13:27:39.343Z,97832.19
2018-08-25T13:30:08.450Z,97834.79
2018-08-25T13:32:38.054Z,97835.06
2018-08-25T13:35:07.282Z,97830.95
2018-08-25T13:37:36.461Z,97837.03
2018-08-25T13:40:06.024Z,97826.28
2018-08-25T13:42:35.086Z,97829.14
2018-08-25T13:45:04.226Z,97830.40
2018-08-25T13:47:33.326Z,97838.88
2018-08-25T13:50:02.459Z,97834.51
2018-08-25T13:52:31.585Z,97828.86
2018-08-25T13:55:00.690Z,97836.07
2018-08-25T13:57:29.814Z,97826.77
2018-08-25T13:59:58.930Z,97833.95
2018-08-25T14:02:28.030Z,97828.17
2018-08-25T14:04:57.134Z,97832.11
2018-08-25T14:07:26.262Z,97835.56
2018-08-25T14:09:55.391Z,97831.47
2018-08-25T14:12:24.499Z,97831.05
2018-08-25T14:14:53.682Z,97834.16
2018-08-25T14:17:22.840Z,97832.25
2018-08-25T14:19:51.994Z,97825.01
2018-08-25T14:22:21.210Z,97831.54
2018-08-25T14:24:50.322Z,97825.78
2018-08-25T14:27:19.532Z,97829.78
2018-08-25T14:29:48.405Z,97834.59
2018-08-25T14:32:17.547Z,97832.68
2018-08-25T14:34:46.841Z,97831.89
2018-08-25T14:37:16.190Z,97838.01
2018-08-25T14:39:45.298Z,97834.58
2018-08-25T14:42:14.422Z,97834.65
2018-08-25T14:44:43.556Z,97826.77
2018-08-25T14:47:12.665Z,97832.55
2018-08-25T14:49:41.770Z,97830.88
2018-08-25T14:52:10.864Z,97839.85
2018-08-25T14:54:40.011Z,97839.72
2018-08-25T14:57:09.186Z,97842.13
2018-08-25T14:59:38.289Z,97836.30
2018-08-25T15:02:07.437Z,97837.17
2018-08-25T15:04:36.878Z,97827.30
2018-08-25T15:07:06.718Z,97829.66
2018-08-25T15:09:35.828Z,97832.02
2018-08-25T15:12:05.214Z,97832.30
2018-08-25T15:14:34.390Z,97829.50
2018-08-25T15:17:03.491Z,97829.39
2018-08-25T15:19:32.602Z,97829.33
2018-08-25T15:22:01.871Z,97818.35
2018-08-25T15:24:30.141Z,97824.92
2018-08-25T15:26:59.257Z,97827.87
2018-08-25T15:29:27.926Z,97824.50
2018-08-25T15:31:57.059Z,97827.25
2018-08-25T15:34:26.170Z,97833.11
2018-08-25T15:36:55.323Z,97830.72
2018-08-25T15:39:24.445Z,97830.61
2018-08-25T15:41:53.558Z,97824.70
2018-08-25T15:44:22.714Z,97835.58
2018-08-25T15:46:51.766Z,97836.83
2018-08-25T15:49:20.861Z,97845.53
2018-08-25T15:51:50.052Z,97837.64
2018-08-25T15:54:19.102Z,97829.45
2018-08-25T15:56:48.211Z,97840.09
2018-08-25T15:59:17.335Z,97843.08
2018-08-25T16:01:46.885Z,97836.48
2018-08-25T16:04:16.013Z,97844.77
2018-08-25T16:06:45.197Z,97843.87
2018-08-25T16:09:14.352Z,97855.73
2018-08-25T16:11:43.481Z,97853.86
2018-08-25T16:14:12.574Z,97853.73
2018-08-25T16:16:41.672Z,97856.25
2018-08-25T16:19:10.800Z,97850.84
2018-08-25T16:21:39.926Z,97856.77
2018-08-25T16:24:09.021Z,97855.28
2018-08-25T16:26:38.132Z,97854.59
2018-08-25T16:29:07.406Z,97858.72
2018-08-25T16:31:37.119Z,97856.97
2018-08-25T16:34:07.066Z,97858.14
2018-08-25T16:36:36.921Z,97857.32
2018-08-25T16:39:07.902Z,97860.36
2018-08-25T16:41:37.283Z,97862.04
2018-08-25T16:44:06.078Z,97865.30
2018-08-25T16:46:35.222Z,97867.46
2018-08-25T16:49:04.339Z,97869.86
2018-08-25T16:51:33.461Z,97864.47
2018-08-25T16:54:02.605Z,97863.55
2018-08-25T16:56:31.716Z,97865.30
2018-08-25T16:59:00.846Z,97865.69
2018-08-25T17:01:30.122Z,97860.00
2018-08-25T17:03:59.206Z,97861.95
2018-08-25T17:06:28.301Z,97859.14
2018-08-25T17:08:57.659Z,97864.97
2018-08-25T17:11:26.706Z,97865.94
2018-08-25T17:13:55.801Z,97862.71
2018-08-25T17:16:24.914Z,97859.77
2018-08-25T17:18:54.815Z,97864.52
2018-08-25T17:21:23.964Z,97864.17
2018-08-25T17:23:53.061Z,97859.30
2018-08-25T17:26:22.173Z,97862.45
2018-08-25T17:28:51.272Z,97863.48
2018-08-25T17:31:21.146Z,97864.75
2018-08-25T17:33:49.818Z,97870.20
2018-08-25T17:36:18.965Z,97871.19
2018-08-25T17:38:48.179Z,97875.98
2018-08-25T17:41:17.342Z,97877.56
2018-08-25T17:43:46.429Z,97871.92
2018-08-25T17:46:15.740Z,97879.80
2018-08-25T17:48:45.198Z,97878.78
2018-08-25T17:51:14.767Z,97882.55
2018-08-25T17:53:43.838Z,97884.81
2018-08-25T17:56:12.921Z,97880.13
2018-08-25T17:58:42.015Z,97888.20
2018-08-25T18:01:11.168Z,97884.72
2018-08-25T18:03:40.265Z,97888.66
2018-08-25T18:06:09.357Z,97898.91
2018-08-25T18:08:38.470Z,97897.36
2018-08-25T18:11:07.692Z,97897.09
2018-08-25T18:13:36.845Z,97901.22
2018-08-25T18:16:06.010Z,97906.15
2018-08-25T18:18:35.136Z,97906.44
2018-08-25T18:21:04.246Z,97911.06
2018-08-25T18:23:33.444Z,97913.87
2018-08-25T18:26:02.492Z,97916.92
2018-08-25T18:28:31.662Z,97919.62
2018-08-25T18:31:00.813Z,97923.47
2018-08-25T18:33:29.589Z,97917.52
2018-08-25T18:35:58.722Z,97922.86
2018-08-25T18:38:28.065Z,97921.50
2018-08-25T18:40:57.157Z,97935.64
2018-08-25T18:43:26.347Z,97941.75
2018-08-25T18:45:55.510Z,97942.09
2018-08-25T18:48:24.699Z,97940.83
2018-08-25T18:50:53.791Z,97940.14
2018-08-25T18:53:22.993Z,97945.20
2018-08-25T18:55:52.094Z,97951.83
2018-08-25T18:58:21.736Z,97952.95
2018-08-25T19:00:50.855Z,97957.38
2018-08-25T19:03:19.955Z,97963.47
2018-08-25T19:05:49.113Z,97967.80
2018-08-25T19:08:18.245Z,97972.31
2018-08-25T19:10:47.392Z,97972.14
2018-08-25T19:13:16.497Z,97980.09
2018-08-25T19:15:45.604Z,97985.50
2018-08-25T19:18:14.749Z,97990.02
2018-08-25T19:20:43.853Z,97993.25
2018-08-25T19:23:12.979Z,97993.83
2018-08-25T19:25:42.754Z,97996.60
2018-08-25T19:28:11.863Z,98002.28
2018-08-25T19:30:40.978Z,98007.96
2018-08-25T19:33:10.622Z,98008.27
2018-08-25T19:35:40.359Z,98012.97
2018-08-25T19:38:09.362Z,98013.77
2018-08-25T19:40:38.476Z,98021.72
2018-08-25T19:43:07.571Z,98023.88
2018-08-25T19:45:36.649Z,98029.78
2018-08-25T19:48:05.794Z,98024.00
2018-08-25T19:50:34.906Z,98025.26
2018-08-25T19:53:04.058Z,98024.48
2018-08-25T19:55:33.570Z,98030.23
2018-08-25T19:58:02.682Z,98021.78
2018-08-25T20:00:31.777Z,98020.92
2018-08-25T20:03:00.893Z,98025.41
2018-08-25T20:05:30.009Z,98025.02
2018-08-25T20:07:59.102Z,98029.33
2018-08-25T20:10:29.581Z,98026.94
2018-08-25T20:12:58.899Z,98028.13
2018-08-25T20:15:28.054Z,98024.44
2018-08-25T20:17:57.148Z,98024.40
2018-08-25T20:20:26.262Z,98022.38
2018-08-25T20:22:55.406Z,98025.70
2018-08-25T20:25:24.523Z,98025.92
2018-08-25T20:27:53.629Z,98032.57
2018-08-25T20:30:22.808Z,98034.34
2018-08-25T20:32:51.965Z,98036.03
2018-08-25T20:35:21.104Z,98043.53
2018-08-25T20:37:50.529Z,98047.48
2018-08-25T20:40:19.789Z,98048.66
2018-08-25T20:42:48.901Z,98061.30
2018-08-25T20:45:18.051Z,98056.58
2018-08-25T20:47:47.165Z,98058.88
2018-08-25T20:50:16.294Z,98059.23
2018-08-25T20:52:45.410Z,98056.55
2018-08-25T20:55:14.700Z,98067.30
2018-08-25T20:57:43.879Z,98071.36
2018-08-25T21:00:12.989Z,98067.38
2018-08-25T21:02:42.236Z,98065.66
2018-08-25T21:05:11.394Z,98066.30
2018-08-25T21:07:40.554Z,98074.21
2018-08-25T21:10:09.755Z,98069.31
2018-08-25T21:12:38.896Z,98078.01
2018-08-25T21:15:08.110Z,98080.63
2018-08-25T21:17:37.294Z,98081.49
2018-08-25T21:20:06.435Z,98087.89
2018-08-25T21:22:35.539Z,98090.80
2018-08-25T21:25:04.722Z,98090.85
2018-08-25T21:27:33.817Z,98089.78
2018-08-25T21:30:02.922Z,98090.46
2018-08-25T21:32:33.027Z,98093.89
2018-08-25T21:35:02.121Z,98092.12
2018-08-25T21:37:31.484Z,98092.07
2018-08-25T21:40:01.425Z,98090.69
2018-08-25T21:42:30.714Z,98106.45
2018-08-25T21:44:59.838Z,98106.56
2018-08-25T21:47:28.973Z,98104.31
2018-08-25T21:49:58.094Z,98104.80
2018-08-25T21:52:27.318Z,98108.73
2018-08-25T21:54:56.476Z,98105.70
2018-08-25T21:57:25.590Z,98113.69
2018-08-25T21:59:54.706Z,98115.94
2018-08-25T22:02:23.847Z,98118.19
2018-08-25T22:04:53.207Z,98114.68
2018-08-25T22:07:22.313Z,98117.64
2018-08-25T22:09:52.713Z,98113.83
2018-08-25T22:12:21.864Z,98114.73
2018-08-25T22:14:50.949Z,98114.08
2018-08-25T22:17:20.090Z,98111.69
2018-08-25T22:19:49.235Z,98119.14
2018-08-25T22:22:18.334Z,98110.48
2018-08-25T22:24:47.455Z,98112.34
2018-08-25T22:27:16.554Z,98119.84
2018-08-25T22:29:45.673Z,98122.42
2018-08-25T22:32:14.845Z,98120.56
2018-08-25T22:34:44.947Z,98121.16
2018-08-25T22:37:14.092Z,98123.01
2018-08-25T22:39:43.253Z,98120.11
2018-08-25T22:42:12.707Z,98122.09
2018-08-25T22:44:41.834Z,98122.48
2018-08-25T22:47:10.938Z,98122.88
2018-08-25T22:49:40.061Z,98129.06
2018-08-25T22:52:09.197Z,98126.41
2018-08-25T22:54:38.474Z,98130.11
2018-08-25T22:57:07.685Z,98134.58
2018-08-25T22:59:36.809Z,98142.28
2018-08-25T23:02:05.975Z,98140.46
2018-08-25T23:04:35.167Z,98144.94
2018-08-25T23:07:04.386Z,98149.93
2018-08-25T23:09:33.557Z,98147.13
2018-08-25T23:12:02.725Z,98145.17
2018-08-25T23:14:31.822Z,98145.84
2018-08-25T23:17:01.029Z,98146.73
2018-08-25T23:19:30.123Z,98137.29
2018-08-25T23:21:59.225Z,98144.07
2018-08-25T23:24:28.344Z,98152.45
2018-08-25T23:26:57.431Z,98152.92
2018-08-25T23:29:26.532Z,98144.06
2018-08-25T23:31:55.662Z,98144.25
2018-08-25T23:34:24.778Z,98144.09
2018-08-25T23:36:53.861Z,98141.20
2018-08-25T23:39:23.662Z,98145.30
2018-08-25T23:41:52.766Z,98143.39
2018-08-25T23:44:21.902Z,98147.20
2018-08-25T23:46:51.010Z,98143.89
2018-08-25T23:49:20.138Z,98141.56
2018-08-25T23:51:49.824Z,98152.45
2018-08-25T23:54:19.097Z,98152.89
2018-08-25T23:56:48.409Z,98154.02
2018-08-25T23:59:17.577Z,98152.34
